Nearby METAR Reports

 

KBML - Berlin, NH
Updated: Tue, 20-Feb-2018 6:07pm EST
Mist, Overcast
Mist, Overcast
 Wind from calm
Wind: Calm
Temperature: 39°F , 4°C
Dew Point: 37°F , 3°C
Humidity: 93%
Barometer: 30.19 inHg , 1022.4 hPa
Summary: Mist
Clouds: Overcast
Visibility: 5 miles , 8 km
Cloud details: Mostly cloudy 700 ft
Overcast 2500 ft
2018/02/20 23:07 KBML 202307Z AUTO 00000KT 5SM BR BKN007 OVC025 04/03 A3019 RMK AO2 T00390033
KCON - Concord, NH
Updated: Tue, 20-Feb-2018 5:51pm EST
Clear
Clear
 Wind from calm
Wind: Calm
Temperature: 52°F , 11°C
Dew Point: 46°F , 8°C
Humidity: 82%
Barometer: 30.21 inHg , 1023 hPa
Clouds: Clear
Visibility: 10 miles , 16 km
2018/02/20 22:51 KCON 202251Z AUTO 00000KT 10SM CLR 11/08 A3021 RMK AO2 SLP233 T01060083
KAFN - Lebanon, NH
Updated: Tue, 20-Feb-2018 5:52pm EST
Clear
Clear
 Wind from calm
Wind: Calm
Temperature: 48°F , 9°C
Dew Point: 48°F , 9°C
Humidity: 100%
Barometer: 30.22 inHg , 1023.4 hPa
Clouds: Clear
Visibility: 10 miles , 16 km
2018/02/20 22:52 KAFN 202252Z AUTO 00000KT 10SM CLR 09/09 A3022 RMK AO2 SLP245 T00940094
 
KMHT - Manchester, NH
Updated: Tue, 20-Feb-2018 5:53pm EST
Few Clouds
Few Clouds
 Wind from ENE
Wind: ENE 3 mph , 6 km/h
Temperature: 57°F , 14°C
Dew Point: 48°F , 9°C
Humidity: 72%
Barometer: 30.19 inHg , 1022.4 hPa
Clouds: Few Clouds
Visibility: 10 miles , 16 km
Cloud details: Few Clouds 9000 ft
Few Clouds 25000 ft
2018/02/20 22:53 KMHT 202253Z 07003KT 10SM FEW090 FEW250 14/09 A3019 RMK AO2 SLP238 T01440094
KMWN - Mount Washington
Updated: Tue, 20-Feb-2018 5:57pm EST
Fog, Overcast
Fog, Overcast
 Wind from W
Wind: W 59 mph , 94 km/h, Gust: 63 mph , 102 km/h
Temperature: 41°F , 5°C
Wind Chill: 26°F , -3°C
Dew Point: 41°F , 5°C
Humidity: 100%
Summary: Fog
Clouds: Overcast
Visibility: 0 miles , 0 km
Cloud details: Overcast 0 ft
2018/02/20 22:57 KMWN 202257Z 26051G55KT 0SM FG VV000 05/05 RMK
K25B - Portsmouth Harbor
Updated: Wed, 31-Dec-1969 7:00pm EST
NOT Current
unable to load K25B data RC=404 Not Found
unable to load K25B data RC=404 Not Found
 
 
KDDH - Bennington, VT
Updated: Tue, 20-Feb-2018 5:54pm EST
Mostly cloudy
Mostly cloudy
 Wind from calm
Wind: Calm
Temperature: 55°F , 13°C
Dew Point: 48°F , 9°C
Humidity: 77%
Barometer: 30.20 inHg , 1022.7 hPa
Clouds: Mostly cloudy
Visibility: 10 miles , 16 km
Cloud details: Mostly cloudy 5000 ft
2018/02/20 22:54 KDDH 202254Z AUTO 00000KT 10SM BKN050 13/09 A3020 RMK AO2 SLP230 T01280094
K9B2 - Newport, VT
Updated: Wed, 31-Dec-1969 7:00pm EST
NOT Current
unable to load K9B2 data RC=404 Not Found
unable to load K9B2 data RC=404 Not Found
 
K1V4 - St Johnsbury, VT
Updated: Tue, 20-Feb-2018 5:54pm EST

 
Temperature: 39°F , 4°C
Dew Point: 39°F , 4°C
Humidity: 100%
Barometer: 30.16 inHg , 1021.3 hPa
2018/02/20 22:54 K1V4 202254Z AUTO 04/04 A3016 RMK AO1 SLP219 T00440044
 
KBGR - Bangor, ME
Updated: Tue, 20-Feb-2018 5:53pm EST
Light drizzle, Fog, Overcast
Light drizzle, Fog, Overcast
 Wind from calm
Wind: Calm
Temperature: 36°F , 2°C
Dew Point: 36°F , 2°C
Humidity: 100%
Barometer: 30.27 inHg , 1025.1 hPa
Summary: Light drizzle, Fog
Clouds: Overcast
Visibility: 1/2 mile , 0.8 km
Cloud details: Overcast 400 ft
2018/02/20 22:53 KBGR 202253Z 00000KT 1/2SM R15/3500V5500FT -DZ FG VV004 02/02 A3027 RMK AO2 SLP254 P0000 I1000 T00220022
KBHB - Bar Harbor, ME
Updated: Tue, 20-Feb-2018 5:56pm EST
Overcast
Overcast
 Wind from E
Wind: E 5 mph , 7 km/h
Temperature: 39°F , 4°C
Wind Chill: 35°F , 2°C
Dew Point: 39°F , 4°C
Humidity: 100%
Barometer: 30.27 inHg , 1025.1 hPa
Clouds: Overcast
Visibility: 7 miles , 11 km
Cloud details: Overcast 500 ft
2018/02/20 22:56 KBHB 202256Z AUTO 08004KT 7SM OVC005 04/04 A3027 RMK AO2 SLP256 T00440039 PNO $
74389 - Gray, ME
Updated: Wed, 31-Dec-1969 7:00pm EST
NOT Current
74389 not loaded
74389 not loaded
 
 
KGNR - Greenville,ME
Updated: Tue, 20-Feb-2018 5:56pm EST

 Wind from SE
Wind: SE 7 mph , 11 km/h
Temperature: 36°F , 2°C
Wind Chill: 30°F , -1°C
Dew Point: 36°F , 2°C
Humidity: 100%
Barometer: 30.20 inHg , 1022.7 hPa
2018/02/20 22:56 KGNR 202256Z AUTO 13006KT 02/02 A3020 RMK AO1 SLP244 P0001 T00170017
KOLD - Old Town, ME
Updated: Wed, 31-Dec-1969 7:00pm EST
NOT Current
unable to load KOLD data RC=404 Not Found
unable to load KOLD data RC=404 Not Found
 
KRUM - Rumford, ME
Updated: Wed, 31-Dec-1969 7:00pm EST
NOT Current
unable to load KRUM data RC=404 Not Found
unable to load KRUM data RC=404 Not Found
 





4038189


Contact Us

© 2018, johnsnhweather | Weather-Display (10.37S-(b66)) | Valid XHTML 1.0 | Valid CSS

This website is neither affiliated with nor endorsed by the National Weather Service, the town of Pittsburg or any other government agency.
The weather data contained herein is offered without any warranties expressed or implied, and is meant to supplement NOAA weather forecasts and information. Never base important decisions that could result in harm to people or property on this weather information.